sensor_id;sensor_type;location;lat;lon;timestamp;temperature;humidity
19330;DHT22;9799;48.214;16.388;2022-11-15T00:02:07;7.80;99.90
19330;DHT22;9799;48.214;16.388;2022-11-15T00:05:28;7.80;99.90
19330;DHT22;9799;48.214;16.388;2022-11-15T00:08:50;7.70;99.90
19330;DHT22;9799;48.214;16.388;2022-11-15T00:12:11;7.80;99.90
19330;DHT22;9799;48.214;16.388;2022-11-15T00:15:36;7.90;99.90
19330;DHT22;9799;48.214;16.388;2022-11-15T00:18:58;7.70;99.90
19330;DHT22;9799;48.214;16.388;2022-11-15T00:22:19;7.70;99.90
19330;DHT22;9799;48.214;16.388;2022-11-15T00:25:41;7.70;99.90
19330;DHT22;9799;48.214;16.388;2022-11-15T00:29:02;7.60;99.90
19330;DHT22;9799;48.214;16.388;2022-11-15T00:32:30;7.70;99.90
19330;DHT22;9799;48.214;16.388;2022-11-15T00:35:52;7.70;99.90
19330;DHT22;9799;48.214;16.388;2022-11-15T00:39:13;7.60;99.90
19330;DHT22;9799;48.214;16.388;2022-11-15T00:42:35;7.60;99.90
19330;DHT22;9799;48.214;16.388;2022-11-15T00:45:57;7.60;99.90
19330;DHT22;9799;48.214;16.388;2022-11-15T00:49:20;7.80;99.90
19330;DHT22;9799;48.214;16.388;2022-11-15T00:52:42;7.70;99.90
19330;DHT22;9799;48.214;16.388;2022-11-15T00:56:17;7.60;99.90
19330;DHT22;9799;48.214;16.388;2022-11-15T00:59:58;7.70;99.90
19330;DHT22;9799;48.214;16.388;2022-11-15T01:03:41;7.70;99.90
19330;DHT22;9799;48.214;16.388;2022-11-15T01:07:06;7.70;99.90
19330;DHT22;9799;48.214;16.388;2022-11-15T01:10:28;7.80;99.90
19330;DHT22;9799;48.214;16.388;2022-11-15T01:13:49;7.80;99.90
19330;DHT22;9799;48.214;16.388;2022-11-15T01:17:11;7.80;99.90
19330;DHT22;9799;48.214;16.388;2022-11-15T01:20:32;7.80;99.90
19330;DHT22;9799;48.214;16.388;2022-11-15T01:23:56;7.70;99.90
19330;DHT22;9799;48.214;16.388;2022-11-15T01:27:18;7.70;99.90
19330;DHT22;9799;48.214;16.388;2022-11-15T01:30:39;7.60;99.90
19330;DHT22;9799;48.214;16.388;2022-11-15T01:34:00;7.60;99.90
19330;DHT22;9799;48.214;16.388;2022-11-15T01:37:22;7.70;99.90
19330;DHT22;9799;48.214;16.388;2022-11-15T01:40:45;7.70;99.90
19330;DHT22;9799;48.214;16.388;2022-11-15T01:44:36;7.80;99.90
19330;DHT22;9799;48.214;16.388;2022-11-15T01:47:58;8.00;99.90
19330;DHT22;9799;48.214;16.388;2022-11-15T01:51:22;8.00;99.90
19330;DHT22;9799;48.214;16.388;2022-11-15T01:54:45;8.10;99.90
19330;DHT22;9799;48.214;16.388;2022-11-15T01:58:09;7.90;99.90
19330;DHT22;9799;48.214;16.388;2022-11-15T02:01:32;7.70;99.90
19330;DHT22;9799;48.214;16.388;2022-11-15T02:04:54;7.70;99.90
19330;DHT22;9799;48.214;16.388;2022-11-15T02:08:15;7.70;99.90
19330;DHT22;9799;48.214;16.388;2022-11-15T02:11:40;7.70;99.90
19330;DHT22;9799;48.214;16.388;2022-11-15T02:15:05;7.70;99.90
19330;DHT22;9799;48.214;16.388;2022-11-15T02:18:33;7.70;99.90
19330;DHT22;9799;48.214;16.388;2022-11-15T02:22:02;7.70;99.90
19330;DHT22;9799;48.214;16.388;2022-11-15T02:25:37;7.70;99.90
19330;DHT22;9799;48.214;16.388;2022-11-15T02:29:03;7.70;99.90
19330;DHT22;9799;48.214;16.388;2022-11-15T02:32:30;7.70;99.90
19330;DHT22;9799;48.214;16.388;2022-11-15T02:35:58;7.80;99.90
19330;DHT22;9799;48.214;16.388;2022-11-15T02:39:26;7.80;99.90
19330;DHT22;9799;48.214;16.388;2022-11-15T02:42:52;7.70;99.90
19330;DHT22;9799;48.214;16.388;2022-11-15T02:46:35;7.80;99.90
19330;DHT22;9799;48.214;16.388;2022-11-15T02:50:19;7.80;99.90
19330;DHT22;9799;48.214;16.388;2022-11-15T02:53:42;7.90;99.90
19330;DHT22;9799;48.214;16.388;2022-11-15T02:57:05;7.80;99.90
19330;DHT22;9799;48.214;16.388;2022-11-15T03:00:30;8.00;99.90
19330;DHT22;9799;48.214;16.388;2022-11-15T03:04:02;7.90;99.90
19330;DHT22;9799;48.214;16.388;2022-11-15T03:07:32;7.90;99.90
19330;DHT22;9799;48.214;16.388;2022-11-15T03:11:03;7.90;99.90
19330;DHT22;9799;48.214;16.388;2022-11-15T03:14:30;7.80;99.90
19330;DHT22;9799;48.214;16.388;2022-11-15T03:17:55;7.90;99.90
19330;DHT22;9799;48.214;16.388;2022-11-15T03:21:19;8.00;99.90
19330;DHT22;9799;48.214;16.388;2022-11-15T03:24:45;7.90;99.90
19330;DHT22;9799;48.214;16.388;2022-11-15T03:28:10;7.90;99.90
19330;DHT22;9799;48.214;16.388;2022-11-15T03:31:35;8.10;99.90
19330;DHT22;9799;48.214;16.388;2022-11-15T03:35:12;8.10;99.90
19330;DHT22;9799;48.214;16.388;2022-11-15T03:38:34;7.90;99.90
19330;DHT22;9799;48.214;16.388;2022-11-15T03:42:06;7.80;99.90
19330;DHT22;9799;48.214;16.388;2022-11-15T03:45:32;7.80;99.90
19330;DHT22;9799;48.214;16.388;2022-11-15T03:48:58;7.90;99.90
19330;DHT22;9799;48.214;16.388;2022-11-15T03:52:21;7.80;99.90
19330;DHT22;9799;48.214;16.388;2022-11-15T03:55:43;7.80;99.90
19330;DHT22;9799;48.214;16.388;2022-11-15T03:59:05;7.70;99.90
19330;DHT22;9799;48.214;16.388;2022-11-15T04:02:27;7.70;99.90
19330;DHT22;9799;48.214;16.388;2022-11-15T04:05:48;7.80;99.90
19330;DHT22;9799;48.214;16.388;2022-11-15T04:09:09;7.80;99.90
19330;DHT22;9799;48.214;16.388;2022-11-15T04:12:31;7.80;99.90
19330;DHT22;9799;48.214;16.388;2022-11-15T04:15:53;7.80;99.90
19330;DHT22;9799;48.214;16.388;2022-11-15T04:19:14;7.80;99.90
19330;DHT22;9799;48.214;16.388;2022-11-15T04:22:53;7.80;99.90
19330;DHT22;9799;48.214;16.388;2022-11-15T04:26:33;7.90;99.90
19330;DHT22;9799;48.214;16.388;2022-11-15T04:29:54;7.90;99.90
19330;DHT22;9799;48.214;16.388;2022-11-15T04:33:17;7.80;99.90
19330;DHT22;9799;48.214;16.388;2022-11-15T04:36:38;7.90;99.90
19330;DHT22;9799;48.214;16.388;2022-11-15T04:40:17;7.90;99.90
19330;DHT22;9799;48.214;16.388;2022-11-15T04:43:38;7.80;99.90
19330;DHT22;9799;48.214;16.388;2022-11-15T04:46:59;7.80;99.90
19330;DHT22;9799;48.214;16.388;2022-11-15T04:50:22;7.80;99.90
19330;DHT22;9799;48.214;16.388;2022-11-15T04:53:43;7.80;99.90
19330;DHT22;9799;48.214;16.388;2022-11-15T04:57:04;7.80;99.90
19330;DHT22;9799;48.214;16.388;2022-11-15T05:00:26;7.80;99.90
19330;DHT22;9799;48.214;16.388;2022-11-15T05:03:47;7.80;99.90
19330;DHT22;9799;48.214;16.388;2022-11-15T05:07:27;7.90;99.90
19330;DHT22;9799;48.214;16.388;2022-11-15T05:10:48;7.80;99.90
19330;DHT22;9799;48.214;16.388;2022-11-15T05:14:10;7.80;99.90
19330;DHT22;9799;48.214;16.388;2022-11-15T05:17:31;7.90;99.90
19330;DHT22;9799;48.214;16.388;2022-11-15T05:20:52;7.90;99.90
19330;DHT22;9799;48.214;16.388;2022-11-15T05:24:15;7.90;99.90
19330;DHT22;9799;48.214;16.388;2022-11-15T05:27:36;7.80;99.90
19330;DHT22;9799;48.214;16.388;2022-11-15T05:31:00;7.90;99.90
19330;DHT22;9799;48.214;16.388;2022-11-15T05:34:21;7.90;99.90
19330;DHT22;9799;48.214;16.388;2022-11-15T05:37:44;7.90;99.90
19330;DHT22;9799;48.214;16.388;2022-11-15T05:41:07;7.90;99.90
19330;DHT22;9799;48.214;16.388;2022-11-15T05:44:30;7.90;99.90
19330;DHT22;9799;48.214;16.388;2022-11-15T05:47:53;7.90;99.90
19330;DHT22;9799;48.214;16.388;2022-11-15T05:51:16;8.00;99.90
19330;DHT22;9799;48.214;16.388;2022-11-15T05:54:38;8.00;99.90
19330;DHT22;9799;48.214;16.388;2022-11-15T05:58:01;8.00;99.90
19330;DHT22;9799;48.214;16.388;2022-11-15T06:01:22;7.90;99.90
19330;DHT22;9799;48.214;16.388;2022-11-15T06:04:44;8.00;99.90
19330;DHT22;9799;48.214;16.388;2022-11-15T06:08:05;7.90;99.90
19330;DHT22;9799;48.214;16.388;2022-11-15T06:11:26;7.90;99.90
19330;DHT22;9799;48.214;16.388;2022-11-15T06:14:48;7.90;99.90
19330;DHT22;9799;48.214;16.388;2022-11-15T06:18:10;7.90;99.90
19330;DHT22;9799;48.214;16.388;2022-11-15T06:21:31;7.90;99.90
19330;DHT22;9799;48.214;16.388;2022-11-15T06:24:52;7.80;99.90
19330;DHT22;9799;48.214;16.388;2022-11-15T06:28:13;7.80;99.90
19330;DHT22;9799;48.214;16.388;2022-11-15T06:31:36;7.90;99.90
19330;DHT22;9799;48.214;16.388;2022-11-15T06:34:57;7.90;99.90
19330;DHT22;9799;48.214;16.388;2022-11-15T06:38:18;7.90;99.90
19330;DHT22;9799;48.214;16.388;2022-11-15T06:41:39;7.90;99.90
19330;DHT22;9799;48.214;16.388;2022-11-15T06:45:01;7.90;99.90
19330;DHT22;9799;48.214;16.388;2022-11-15T06:48:23;7.90;99.90
19330;DHT22;9799;48.214;16.388;2022-11-15T06:51:44;8.00;99.90
19330;DHT22;9799;48.214;16.388;2022-11-15T06:55:07;8.00;99.90
19330;DHT22;9799;48.214;16.388;2022-11-15T06:58:29;8.10;99.90
19330;DHT22;9799;48.214;16.388;2022-11-15T07:01:50;8.10;99.90
19330;DHT22;9799;48.214;16.388;2022-11-15T07:05:14;8.10;99.90
19330;DHT22;9799;48.214;16.388;2022-11-15T07:08:36;8.00;99.90
19330;DHT22;9799;48.214;16.388;2022-11-15T07:11:57;8.00;99.90
19330;DHT22;9799;48.214;16.388;2022-11-15T07:15:20;8.00;99.90
19330;DHT22;9799;48.214;16.388;2022-11-15T07:18:41;7.90;99.90
19330;DHT22;9799;48.214;16.388;2022-11-15T07:22:03;7.90;99.90
19330;DHT22;9799;48.214;16.388;2022-11-15T07:25:25;7.90;99.90
19330;DHT22;9799;48.214;16.388;2022-11-15T07:28:46;8.00;99.90
19330;DHT22;9799;48.214;16.388;2022-11-15T07:32:07;8.00;99.90
19330;DHT22;9799;48.214;16.388;2022-11-15T07:35:30;7.90;99.90
19330;DHT22;9799;48.214;16.388;2022-11-15T07:38:52;8.00;99.90
19330;DHT22;9799;48.214;16.388;2022-11-15T07:42:14;8.00;99.90
19330;DHT22;9799;48.214;16.388;2022-11-15T07:45:53;7.90;99.90
19330;DHT22;9799;48.214;16.388;2022-11-15T07:49:14;7.90;99.90
19330;DHT22;9799;48.214;16.388;2022-11-15T07:52:35;7.90;99.90
19330;DHT22;9799;48.214;16.388;2022-11-15T07:55:57;8.00;99.90
19330;DHT22;9799;48.214;16.388;2022-11-15T07:59:19;7.90;99.90
19330;DHT22;9799;48.214;16.388;2022-11-15T08:02:40;7.90;99.90
19330;DHT22;9799;48.214;16.388;2022-11-15T08:06:02;7.90;99.90
19330;DHT22;9799;48.214;16.388;2022-11-15T08:09:23;8.00;99.90
19330;DHT22;9799;48.214;16.388;2022-11-15T08:12:46;8.00;99.90
19330;DHT22;9799;48.214;16.388;2022-11-15T08:16:08;8.20;99.90
19330;DHT22;9799;48.214;16.388;2022-11-15T08:19:31;8.10;99.90
19330;DHT22;9799;48.214;16.388;2022-11-15T08:22:52;8.00;99.90
19330;DHT22;9799;48.214;16.388;2022-11-15T08:26:14;8.00;99.90
19330;DHT22;9799;48.214;16.388;2022-11-15T08:29:36;8.00;99.90
19330;DHT22;9799;48.214;16.388;2022-11-15T08:32:58;7.90;99.90
19330;DHT22;9799;48.214;16.388;2022-11-15T08:36:19;7.90;99.90
19330;DHT22;9799;48.214;16.388;2022-11-15T08:39:41;7.90;99.90
19330;DHT22;9799;48.214;16.388;2022-11-15T08:43:02;8.00;99.90
19330;DHT22;9799;48.214;16.388;2022-11-15T08:46:25;7.90;99.90
19330;DHT22;9799;48.214;16.388;2022-11-15T08:49:46;7.90;99.90
19330;DHT22;9799;48.214;16.388;2022-11-15T08:53:08;8.00;99.90
19330;DHT22;9799;48.214;16.388;2022-11-15T08:56:29;8.00;99.90
19330;DHT22;9799;48.214;16.388;2022-11-15T08:59:50;8.00;99.90
19330;DHT22;9799;48.214;16.388;2022-11-15T09:03:13;8.10;99.90
19330;DHT22;9799;48.214;16.388;2022-11-15T09:06:34;8.10;99.90
19330;DHT22;9799;48.214;16.388;2022-11-15T09:09:56;8.00;99.90
19330;DHT22;9799;48.214;16.388;2022-11-15T09:13:17;7.90;99.90
19330;DHT22;9799;48.214;16.388;2022-11-15T09:16:38;8.00;99.90
19330;DHT22;9799;48.214;16.388;2022-11-15T09:20:01;8.00;99.90
19330;DHT22;9799;48.214;16.388;2022-11-15T09:23:23;8.00;99.90
19330;DHT22;9799;48.214;16.388;2022-11-15T09:26:44;8.00;99.90
19330;DHT22;9799;48.214;16.388;2022-11-15T09:30:06;8.10;99.90
19330;DHT22;9799;48.214;16.388;2022-11-15T09:33:28;8.10;99.90
19330;DHT22;9799;48.214;16.388;2022-11-15T09:36:50;8.10;99.90
19330;DHT22;9799;48.214;16.388;2022-11-15T09:40:13;8.10;99.90
19330;DHT22;9799;48.214;16.388;2022-11-15T09:43:40;8.10;99.90
19330;DHT22;9799;48.214;16.388;2022-11-15T09:47:13;8.10;99.90
19330;DHT22;9799;48.214;16.388;2022-11-15T09:50:41;8.00;99.90
19330;DHT22;9799;48.214;16.388;2022-11-15T09:54:10;8.00;99.90
19330;DHT22;9799;48.214;16.388;2022-11-15T09:57:38;8.20;99.90
19330;DHT22;9799;48.214;16.388;2022-11-15T10:01:04;8.20;99.90
19330;DHT22;9799;48.214;16.388;2022-11-15T10:04:27;8.20;99.90
19330;DHT22;9799;48.214;16.388;2022-11-15T10:07:55;8.10;99.90
19330;DHT22;9799;48.214;16.388;2022-11-15T10:11:21;8.20;99.90
19330;DHT22;9799;48.214;16.388;2022-11-15T10:14:43;8.20;99.90
19330;DHT22;9799;48.214;16.388;2022-11-15T10:18:09;8.20;99.90
19330;DHT22;9799;48.214;16.388;2022-11-15T10:21:40;8.20;99.90
19330;DHT22;9799;48.214;16.388;2022-11-15T10:25:18;8.20;99.90
19330;DHT22;9799;48.214;16.388;2022-11-15T10:28:40;8.30;99.90
19330;DHT22;9799;48.214;16.388;2022-11-15T10:32:02;8.30;99.90
19330;DHT22;9799;48.214;16.388;2022-11-15T10:35:25;8.50;99.90
19330;DHT22;9799;48.214;16.388;2022-11-15T10:38:57;8.40;99.90
19330;DHT22;9799;48.214;16.388;2022-11-15T10:42:29;8.30;99.90
19330;DHT22;9799;48.214;16.388;2022-11-15T10:45:52;8.20;99.90
19330;DHT22;9799;48.214;16.388;2022-11-15T10:49:14;8.20;99.90
19330;DHT22;9799;48.214;16.388;2022-11-15T10:52:36;8.40;99.90
19330;DHT22;9799;48.214;16.388;2022-11-15T10:56:03;8.40;99.90
19330;DHT22;9799;48.214;16.388;2022-11-15T10:59:27;8.50;99.90
19330;DHT22;9799;48.214;16.388;2022-11-15T11:02:58;8.50;99.90
19330;DHT22;9799;48.214;16.388;2022-11-15T11:06:20;8.60;99.90
19330;DHT22;9799;48.214;16.388;2022-11-15T11:09:41;8.50;99.90
19330;DHT22;9799;48.214;16.388;2022-11-15T11:13:13;8.70;99.90
19330;DHT22;9799;48.214;16.388;2022-11-15T11:16:42;8.80;99.90
19330;DHT22;9799;48.214;16.388;2022-11-15T11:20:14;8.80;99.90
19330;DHT22;9799;48.214;16.388;2022-11-15T11:23:45;8.80;99.90
19330;DHT22;9799;48.214;16.388;2022-11-15T11:27:21;8.80;99.90
19330;DHT22;9799;48.214;16.388;2022-11-15T11:30:52;8.70;99.90
19330;DHT22;9799;48.214;16.388;2022-11-15T11:34:25;8.70;99.90
19330;DHT22;9799;48.214;16.388;2022-11-15T11:37:53;8.90;99.90
19330;DHT22;9799;48.214;16.388;2022-11-15T11:41:24;8.90;99.90
19330;DHT22;9799;48.214;16.388;2022-11-15T11:44:57;9.10;99.90
19330;DHT22;9799;48.214;16.388;2022-11-15T11:48:33;9.10;99.90
19330;DHT22;9799;48.214;16.388;2022-11-15T11:52:03;9.00;99.90
19330;DHT22;9799;48.214;16.388;2022-11-15T11:55:32;9.00;99.90
19330;DHT22;9799;48.214;16.388;2022-11-15T11:59:02;9.00;99.90
19330;DHT22;9799;48.214;16.388;2022-11-15T12:02:29;9.00;99.90
19330;DHT22;9799;48.214;16.388;2022-11-15T12:05:54;9.00;99.90
19330;DHT22;9799;48.214;16.388;2022-11-15T12:09:20;9.00;99.90
19330;DHT22;9799;48.214;16.388;2022-11-15T12:12:49;8.90;99.90
19330;DHT22;9799;48.214;16.388;2022-11-15T12:16:15;8.90;99.90
19330;DHT22;9799;48.214;16.388;2022-11-15T12:19:37;8.90;99.90
19330;DHT22;9799;48.214;16.388;2022-11-15T12:23:11;9.00;99.90
19330;DHT22;9799;48.214;16.388;2022-11-15T12:26:39;9.00;99.90
19330;DHT22;9799;48.214;16.388;2022-11-15T12:30:08;9.00;99.90
19330;DHT22;9799;48.214;16.388;2022-11-15T12:33:34;9.00;99.90
19330;DHT22;9799;48.214;16.388;2022-11-15T12:36:57;9.00;99.90
19330;DHT22;9799;48.214;16.388;2022-11-15T12:40:24;9.00;99.90
19330;DHT22;9799;48.214;16.388;2022-11-15T12:43:49;9.20;99.90
19330;DHT22;9799;48.214;16.388;2022-11-15T12:47:25;9.10;99.90
19330;DHT22;9799;48.214;16.388;2022-11-15T12:50:53;9.20;99.90
19330;DHT22;9799;48.214;16.388;2022-11-15T12:58:28;9.20;99.90
19330;DHT22;9799;48.214;16.388;2022-11-15T13:01:58;9.20;99.90
19330;DHT22;9799;48.214;16.388;2022-11-15T13:06:05;9.10;99.90
19330;DHT22;9799;48.214;16.388;2022-11-15T13:09:54;9.20;99.90
19330;DHT22;9799;48.214;16.388;2022-11-15T13:13:43;9.30;99.90
19330;DHT22;9799;48.214;16.388;2022-11-15T13:17:30;9.30;99.90
19330;DHT22;9799;48.214;16.388;2022-11-15T13:20:54;9.30;99.90
19330;DHT22;9799;48.214;16.388;2022-11-15T13:24:16;9.30;99.90
19330;DHT22;9799;48.214;16.388;2022-11-15T13:27:40;9.20;99.90
19330;DHT22;9799;48.214;16.388;2022-11-15T13:31:13;9.10;99.90
19330;DHT22;9799;48.214;16.388;2022-11-15T13:34:37;9.20;99.90
19330;DHT22;9799;48.214;16.388;2022-11-15T13:38:03;9.30;99.90
19330;DHT22;9799;48.214;16.388;2022-11-15T13:41:27;9.20;99.90
19330;DHT22;9799;48.214;16.388;2022-11-15T13:44:55;9.30;99.90
19330;DHT22;9799;48.214;16.388;2022-11-15T13:48:17;9.30;99.90
19330;DHT22;9799;48.214;16.388;2022-11-15T13:51:43;9.40;99.90
19330;DHT22;9799;48.214;16.388;2022-11-15T13:55:11;9.40;99.90
19330;DHT22;9799;48.214;16.388;2022-11-15T13:58:37;9.30;99.90
19330;DHT22;9799;48.214;16.388;2022-11-15T14:02:03;9.40;99.90
19330;DHT22;9799;48.214;16.388;2022-11-15T14:05:31;9.50;99.90
19330;DHT22;9799;48.214;16.388;2022-11-15T14:09:24;9.50;99.90
19330;DHT22;9799;48.214;16.388;2022-11-15T14:12:51;9.50;99.90
19330;DHT22;9799;48.214;16.388;2022-11-15T14:16:15;9.50;99.90
19330;DHT22;9799;48.214;16.388;2022-11-15T14:19:39;9.50;99.90
19330;DHT22;9799;48.214;16.388;2022-11-15T14:23:03;9.50;99.90
19330;DHT22;9799;48.214;16.388;2022-11-15T14:26:30;9.60;99.90
19330;DHT22;9799;48.214;16.388;2022-11-15T14:29:53;9.50;99.90
19330;DHT22;9799;48.214;16.388;2022-11-15T14:33:22;9.60;99.90
19330;DHT22;9799;48.214;16.388;2022-11-15T14:36:44;9.70;99.90
19330;DHT22;9799;48.214;16.388;2022-11-15T14:40:06;9.70;99.90
19330;DHT22;9799;48.214;16.388;2022-11-15T14:43:29;9.60;99.90
19330;DHT22;9799;48.214;16.388;2022-11-15T14:46:52;9.60;99.90
19330;DHT22;9799;48.214;16.388;2022-11-15T14:50:14;9.60;99.90
19330;DHT22;9799;48.214;16.388;2022-11-15T14:53:35;9.60;99.90
19330;DHT22;9799;48.214;16.388;2022-11-15T14:56:56;9.60;99.90
19330;DHT22;9799;48.214;16.388;2022-11-15T15:00:18;9.60;99.90
19330;DHT22;9799;48.214;16.388;2022-11-15T15:03:41;9.60;99.90
19330;DHT22;9799;48.214;16.388;2022-11-15T15:07:04;9.70;99.90
19330;DHT22;9799;48.214;16.388;2022-11-15T15:10:25;9.60;99.90
19330;DHT22;9799;48.214;16.388;2022-11-15T15:13:48;9.60;99.90
19330;DHT22;9799;48.214;16.388;2022-11-15T15:17:10;9.60;99.90
19330;DHT22;9799;48.214;16.388;2022-11-15T15:20:32;9.60;99.90
19330;DHT22;9799;48.214;16.388;2022-11-15T15:23:54;9.70;99.90
19330;DHT22;9799;48.214;16.388;2022-11-15T15:27:16;9.70;99.90
19330;DHT22;9799;48.214;16.388;2022-11-15T15:30:37;9.80;99.90
19330;DHT22;9799;48.214;16.388;2022-11-15T15:33:59;9.80;99.90
19330;DHT22;9799;48.214;16.388;2022-11-15T15:37:24;9.70;99.90
19330;DHT22;9799;48.214;16.388;2022-11-15T15:40:46;9.80;99.90
19330;DHT22;9799;48.214;16.388;2022-11-15T15:44:09;9.70;99.90
19330;DHT22;9799;48.214;16.388;2022-11-15T15:47:31;9.70;99.90
19330;DHT22;9799;48.214;16.388;2022-11-15T15:50:52;9.70;99.90
19330;DHT22;9799;48.214;16.388;2022-11-15T15:54:15;9.80;99.90
19330;DHT22;9799;48.214;16.388;2022-11-15T15:57:36;9.70;99.90
19330;DHT22;9799;48.214;16.388;2022-11-15T16:00:58;9.70;99.90
19330;DHT22;9799;48.214;16.388;2022-11-15T16:04:19;9.80;99.90
19330;DHT22;9799;48.214;16.388;2022-11-15T16:07:41;9.80;99.90
19330;DHT22;9799;48.214;16.388;2022-11-15T16:11:04;9.70;99.90
19330;DHT22;9799;48.214;16.388;2022-11-15T16:14:26;9.70;99.90
19330;DHT22;9799;48.214;16.388;2022-11-15T16:17:49;9.80;99.90
19330;DHT22;9799;48.214;16.388;2022-11-15T16:21:11;9.80;99.90
19330;DHT22;9799;48.214;16.388;2022-11-15T16:24:32;9.80;99.90
19330;DHT22;9799;48.214;16.388;2022-11-15T16:27:54;9.80;99.90
19330;DHT22;9799;48.214;16.388;2022-11-15T16:31:16;9.70;99.90
19330;DHT22;9799;48.214;16.388;2022-11-15T16:34:41;9.70;99.90
19330;DHT22;9799;48.214;16.388;2022-11-15T16:38:02;9.70;99.90
19330;DHT22;9799;48.214;16.388;2022-11-15T16:41:24;9.60;99.90
19330;DHT22;9799;48.214;16.388;2022-11-15T16:44:47;9.60;99.90
19330;DHT22;9799;48.214;16.388;2022-11-15T16:48:19;9.60;99.90
19330;DHT22;9799;48.214;16.388;2022-11-15T16:51:41;9.60;99.90
19330;DHT22;9799;48.214;16.388;2022-11-15T16:55:04;9.50;99.90
19330;DHT22;9799;48.214;16.388;2022-11-15T16:58:26;9.50;99.90
19330;DHT22;9799;48.214;16.388;2022-11-15T17:01:48;9.50;99.90
19330;DHT22;9799;48.214;16.388;2022-11-15T17:05:13;9.50;99.90
19330;DHT22;9799;48.214;16.388;2022-11-15T17:08:35;9.50;99.90
19330;DHT22;9799;48.214;16.388;2022-11-15T17:11:56;9.60;99.90
19330;DHT22;9799;48.214;16.388;2022-11-15T17:15:18;9.50;99.90
19330;DHT22;9799;48.214;16.388;2022-11-15T17:18:41;9.60;99.90
19330;DHT22;9799;48.214;16.388;2022-11-15T17:22:04;9.60;99.90
19330;DHT22;9799;48.214;16.388;2022-11-15T17:25:26;9.60;99.90
19330;DHT22;9799;48.214;16.388;2022-11-15T17:28:48;9.60;99.90
19330;DHT22;9799;48.214;16.388;2022-11-15T17:32:09;9.60;99.90
19330;DHT22;9799;48.214;16.388;2022-11-15T17:35:33;9.60;99.90
19330;DHT22;9799;48.214;16.388;2022-11-15T17:38:54;9.60;99.90
19330;DHT22;9799;48.214;16.388;2022-11-15T17:42:16;9.70;99.90
19330;DHT22;9799;48.214;16.388;2022-11-15T17:45:39;9.60;99.90
19330;DHT22;9799;48.214;16.388;2022-11-15T17:49:01;9.60;99.90
19330;DHT22;9799;48.214;16.388;2022-11-15T17:52:24;9.60;99.90
19330;DHT22;9799;48.214;16.388;2022-11-15T17:55:46;9.60;99.90
19330;DHT22;9799;48.214;16.388;2022-11-15T17:59:07;9.70;99.90
19330;DHT22;9799;48.214;16.388;2022-11-15T18:02:29;9.60;99.90
19330;DHT22;9799;48.214;16.388;2022-11-15T18:05:51;9.70;99.90
19330;DHT22;9799;48.214;16.388;2022-11-15T18:09:15;9.60;99.90
19330;DHT22;9799;48.214;16.388;2022-11-15T18:12:36;9.70;99.90
19330;DHT22;9799;48.214;16.388;2022-11-15T18:15:58;9.60;99.90
19330;DHT22;9799;48.214;16.388;2022-11-15T18:19:22;9.70;99.90
19330;DHT22;9799;48.214;16.388;2022-11-15T18:22:44;9.70;99.90
19330;DHT22;9799;48.214;16.388;2022-11-15T18:26:08;9.70;99.90
19330;DHT22;9799;48.214;16.388;2022-11-15T18:29:33;9.60;99.90
19330;DHT22;9799;48.214;16.388;2022-11-15T18:32:56;9.70;99.90
19330;DHT22;9799;48.214;16.388;2022-11-15T18:36:20;9.70;99.90
19330;DHT22;9799;48.214;16.388;2022-11-15T18:39:42;9.60;99.90
19330;DHT22;9799;48.214;16.388;2022-11-15T18:43:06;9.70;99.90
19330;DHT22;9799;48.214;16.388;2022-11-15T18:46:29;9.60;99.90
19330;DHT22;9799;48.214;16.388;2022-11-15T18:49:51;9.70;99.90
19330;DHT22;9799;48.214;16.388;2022-11-15T18:53:12;9.70;99.90
19330;DHT22;9799;48.214;16.388;2022-11-15T18:56:35;9.70;99.90
19330;DHT22;9799;48.214;16.388;2022-11-15T19:00:00;9.70;99.90
19330;DHT22;9799;48.214;16.388;2022-11-15T19:03:22;9.60;99.90
19330;DHT22;9799;48.214;16.388;2022-11-15T19:06:44;9.50;99.90
19330;DHT22;9799;48.214;16.388;2022-11-15T19:10:07;9.50;99.90
19330;DHT22;9799;48.214;16.388;2022-11-15T19:13:31;9.50;99.90
19330;DHT22;9799;48.214;16.388;2022-11-15T19:16:54;9.50;99.90
19330;DHT22;9799;48.214;16.388;2022-11-15T19:20:16;9.50;99.90
19330;DHT22;9799;48.214;16.388;2022-11-15T19:23:40;9.60;99.90
19330;DHT22;9799;48.214;16.388;2022-11-15T19:27:02;9.60;99.90
19330;DHT22;9799;48.214;16.388;2022-11-15T19:30:24;9.70;99.90
19330;DHT22;9799;48.214;16.388;2022-11-15T19:33:49;9.80;99.90
19330;DHT22;9799;48.214;16.388;2022-11-15T19:37:11;9.80;99.90
19330;DHT22;9799;48.214;16.388;2022-11-15T19:40:33;9.80;99.90
19330;DHT22;9799;48.214;16.388;2022-11-15T19:43:55;9.80;99.90
19330;DHT22;9799;48.214;16.388;2022-11-15T19:47:16;9.80;99.90
19330;DHT22;9799;48.214;16.388;2022-11-15T19:50:39;9.90;99.90
19330;DHT22;9799;48.214;16.388;2022-11-15T19:54:02;9.80;99.90
19330;DHT22;9799;48.214;16.388;2022-11-15T19:57:28;9.80;99.90
19330;DHT22;9799;48.214;16.388;2022-11-15T20:00:59;9.70;99.90
19330;DHT22;9799;48.214;16.388;2022-11-15T20:04:22;9.70;99.90
19330;DHT22;9799;48.214;16.388;2022-11-15T20:07:48;9.70;99.90
19330;DHT22;9799;48.214;16.388;2022-11-15T20:11:11;9.70;99.90
19330;DHT22;9799;48.214;16.388;2022-11-15T20:14:33;9.70;99.90
19330;DHT22;9799;48.214;16.388;2022-11-15T20:17:55;9.70;99.90
19330;DHT22;9799;48.214;16.388;2022-11-15T20:21:17;9.60;99.90
19330;DHT22;9799;48.214;16.388;2022-11-15T20:24:42;9.60;99.90
19330;DHT22;9799;48.214;16.388;2022-11-15T20:28:05;9.70;99.90
19330;DHT22;9799;48.214;16.388;2022-11-15T20:31:29;9.60;99.90
19330;DHT22;9799;48.214;16.388;2022-11-15T20:34:52;9.60;99.90
19330;DHT22;9799;48.214;16.388;2022-11-15T20:38:14;9.60;99.90
19330;DHT22;9799;48.214;16.388;2022-11-15T20:41:37;9.50;99.90
19330;DHT22;9799;48.214;16.388;2022-11-15T20:45:02;9.50;99.90
19330;DHT22;9799;48.214;16.388;2022-11-15T20:48:23;9.60;99.90
19330;DHT22;9799;48.214;16.388;2022-11-15T20:51:45;9.70;99.90
19330;DHT22;9799;48.214;16.388;2022-11-15T20:55:08;9.70;99.90
19330;DHT22;9799;48.214;16.388;2022-11-15T20:58:31;9.70;99.90
19330;DHT22;9799;48.214;16.388;2022-11-15T21:01:52;9.70;99.90
19330;DHT22;9799;48.214;16.388;2022-11-15T21:05:14;9.70;99.90
19330;DHT22;9799;48.214;16.388;2022-11-15T21:08:36;9.60;99.90
19330;DHT22;9799;48.214;16.388;2022-11-15T21:12:14;9.60;99.90
19330;DHT22;9799;48.214;16.388;2022-11-15T21:15:37;9.60;99.90
19330;DHT22;9799;48.214;16.388;2022-11-15T21:18:59;9.60;99.90
19330;DHT22;9799;48.214;16.388;2022-11-15T21:22:20;9.70;99.90
19330;DHT22;9799;48.214;16.388;2022-11-15T21:25:47;9.70;99.90
19330;DHT22;9799;48.214;16.388;2022-11-15T21:29:08;9.60;99.90
19330;DHT22;9799;48.214;16.388;2022-11-15T21:32:31;9.70;99.90
19330;DHT22;9799;48.214;16.388;2022-11-15T21:35:53;9.70;99.90
19330;DHT22;9799;48.214;16.388;2022-11-15T21:39:14;9.60;99.90
19330;DHT22;9799;48.214;16.388;2022-11-15T21:42:38;9.60;99.90
19330;DHT22;9799;48.214;16.388;2022-11-15T21:46:01;9.60;99.90
19330;DHT22;9799;48.214;16.388;2022-11-15T21:49:23;9.60;99.90
19330;DHT22;9799;48.214;16.388;2022-11-15T21:52:45;9.60;99.90
19330;DHT22;9799;48.214;16.388;2022-11-15T21:56:07;9.60;99.90